createdAt,value
2024-03-22T00:03:19.500Z,74.19
2024-03-22T00:08:01.812Z,79.6
2024-03-22T00:12:44.126Z,92.4
2024-03-22T00:17:26.331Z,87.3
2024-03-22T00:22:08.638Z,90.1
2024-03-22T00:31:33.164Z,104.2
2024-03-22T00:36:15.467Z,102.5
2024-03-22T00:40:57.778Z,102.5
2024-03-22T00:45:40.088Z,92.3
2024-03-22T00:50:22.306Z,91.4
2024-03-22T00:55:03.615Z,102.8
2024-03-22T00:59:45.917Z,95.3
2024-03-22T01:04:28.224Z,110
2024-03-22T01:09:10.437Z,120
2024-03-22T01:18:35.060Z,123.1
2024-03-22T01:23:16.383Z,106
2024-03-22T01:27:57.673Z,122.4
2024-03-22T01:32:39.888Z,102.7
2024-03-22T01:37:22.186Z,140.89
2024-03-22T01:42:04.508Z,143.7
2024-03-22T01:46:46.711Z,129
2024-03-22T01:51:29.026Z,125
2024-03-22T01:56:11.344Z,115
2024-03-22T02:05:35.860Z,119.2
2024-03-22T02:10:18.170Z,110.7
2024-03-22T02:15:00.489Z,110.7
2024-03-22T02:19:42.698Z,97.2
2024-03-22T02:24:25.005Z,100.5
2024-03-22T02:29:06.317Z,92
2024-03-22T02:33:48.619Z,91.9
2024-03-22T02:38:30.832Z,103
2024-03-22T02:43:13.153Z,96.7
2024-03-22T02:52:37.769Z,113.1
2024-03-22T02:57:19.079Z,138.6
2024-03-22T03:02:00.382Z,114.6
2024-03-22T03:06:42.591Z,105.8
2024-03-22T03:11:24.899Z,111.2
2024-03-22T03:16:07.218Z,118.1
2024-03-22T03:20:49.429Z,103.6
2024-03-22T03:25:31.735Z,106.4
2024-03-22T03:30:14.068Z,96.4
2024-03-22T03:39:38.581Z,101.5
2024-03-22T03:44:20.874Z,104.3
2024-03-22T03:49:03.181Z,102.2
2024-03-22T03:53:45.390Z,96.6
2024-03-22T03:58:27.717Z,98.8
2024-03-22T04:03:09.023Z,91.5
2024-03-22T04:07:51.325Z,90.2
2024-03-22T04:12:33.536Z,93.9
2024-03-22T04:17:15.845Z,86.2
2024-03-22T04:26:40.372Z,95.3
2024-03-22T04:31:22.684Z,99.4
2024-03-22T04:36:04.989Z,85
2024-03-22T04:40:47.307Z,84.8
2024-03-22T04:45:29.509Z,89.6
2024-03-22T04:50:11.820Z,93.2
2024-03-22T04:54:54.133Z,90.6
2024-03-22T04:59:36.354Z,98.4
2024-03-22T05:04:17.640Z,105.2
2024-03-22T05:13:42.272Z,102.3
2024-03-22T05:18:24.481Z,96.6
2024-03-22T05:23:06.797Z,82.7
2024-03-22T05:27:49.099Z,97.2
2024-03-22T05:32:31.305Z,85.4
2024-03-22T05:37:13.625Z,97.2
2024-03-22T05:41:55.930Z,98.9
2024-03-22T05:46:38.245Z,99.1
2024-03-22T05:51:20.460Z,106.2
2024-03-22T05:56:02.764Z,124.4
2024-03-22T06:00:45.076Z,105.4
2024-03-22T06:05:26.385Z,121.1
2024-03-22T06:10:07.688Z,118.6
2024-03-22T06:14:49.900Z,109.7
2024-03-22T06:19:32.213Z,109.1
2024-03-22T06:24:14.523Z,135
2024-03-22T06:28:56.842Z,118.2
2024-03-22T06:33:39.032Z,133
2024-03-22T06:38:21.357Z,134
2024-03-22T06:43:03.664Z,129.5
2024-03-22T06:52:28.174Z,118.4
2024-03-22T06:57:10.495Z,92.9
2024-03-22T07:01:52.879Z,92.4
2024-03-22T07:06:35.044Z,96.4
2024-03-22T07:11:16.323Z,87.5
2024-03-22T07:15:58.636Z,89
2024-03-22T07:20:41.095Z,70.5
2024-03-22T07:25:23.166Z,78.6
2024-03-22T07:34:47.940Z,52.4
2024-03-22T07:39:29.079Z,54.7
2024-03-22T07:44:10.398Z,45.6
2024-03-22T07:48:52.730Z,39.09
2024-03-22T07:53:35.268Z,43.5
2024-03-22T07:58:17.433Z,35.5
2024-03-22T08:02:59.688Z,30.9
2024-03-22T08:07:42.056Z,34.3
2024-03-22T08:12:24.444Z,26.2
2024-03-22T08:21:48.932Z,19.4
2024-03-22T08:26:31.259Z,22.6
2024-03-22T08:31:13.571Z,17.7
2024-03-22T08:35:55.841Z,18.2
2024-03-22T08:40:38.065Z,14.6
2024-03-22T08:45:20.421Z,19
2024-03-22T08:50:02.320Z,17.5
2024-03-22T08:54:43.864Z,15.1
2024-03-22T08:59:26.230Z,19.5
2024-03-22T09:08:50.772Z,15.4
2024-03-22T09:13:33.053Z,16.79
2024-03-22T09:18:14.902Z,16.7
2024-03-22T09:22:57.647Z,15.3
2024-03-22T09:27:39.817Z,15.9
2024-03-22T09:32:22.164Z,19.2
2024-03-22T09:37:04.039Z,15.7
2024-03-22T09:41:46.646Z,16.79
2024-03-22T09:46:28.911Z,16.29
2024-03-22T09:55:53.227Z,18.4
2024-03-22T10:00:35.499Z,12.4
2024-03-22T10:09:59.123Z,15.3
2024-03-22T10:14:41.394Z,18.29
2024-03-22T10:19:23.803Z,19.2
2024-03-22T10:24:05.860Z,18.4
2024-03-22T10:28:48.297Z,19.79
2024-03-22T10:33:30.494Z,16.79
2024-03-22T10:42:54.995Z,12.1
2024-03-22T10:47:37.312Z,14.7
2024-03-22T10:52:19.536Z,21.8
2024-03-22T10:57:01.855Z,13.2
2024-03-22T11:01:44.212Z,15
2024-03-22T11:06:26.384Z,11.7
2024-03-22T11:11:08.729Z,8.89
2024-03-22T11:15:51.048Z,8.39
2024-03-22T11:20:32.289Z,10
2024-03-22T11:25:14.633Z,8
2024-03-22T11:29:56.818Z,7.2
2024-03-22T11:34:39.129Z,6.7
2024-03-22T11:39:21.347Z,9.2
2024-03-22T11:44:03.647Z,6.4
2024-03-22T11:48:45.091Z,7.9
2024-03-22T11:53:27.272Z,9.5
2024-03-22T11:58:09.480Z,6.4
2024-03-22T12:02:51.792Z,7.2
2024-03-22T12:07:34.100Z,5.7
2024-03-22T12:12:15.413Z,6.5
2024-03-22T12:16:57.622Z,8.2
2024-03-22T12:21:39.979Z,5.6
2024-03-22T12:26:22.247Z,4.5
2024-03-22T12:31:04.460Z,6.3
2024-03-22T12:35:46.767Z,5.8
2024-03-22T12:40:28.080Z,6.5
2024-03-22T12:45:10.395Z,5.4
2024-03-22T12:49:52.594Z,6.8
2024-03-22T13:03:59.426Z,6.9
2024-03-22T13:08:40.751Z,6.8
2024-03-22T13:13:23.057Z,7.4
2024-03-22T13:18:05.278Z,6.8
2024-03-22T13:22:47.590Z,7.2
2024-03-22T13:27:29.911Z,7.6
2024-03-22T13:32:12.215Z,7.7
2024-03-22T13:36:54.413Z,7.5
2024-03-22T13:41:36.730Z,6.3
2024-03-22T13:55:43.555Z,7.6
2024-03-22T14:00:26.033Z,6.6
2024-03-22T14:05:08.442Z,6.5
2024-03-22T14:09:50.729Z,8.1
2024-03-22T14:14:32.861Z,2.4
2024-03-22T14:19:14.922Z,3
2024-03-22T14:23:57.538Z,4.3
2024-03-22T14:28:39.756Z,4.19
2024-03-22T14:38:03.071Z,4.3
2024-03-22T14:42:45.579Z,4.5
2024-03-22T14:52:09.311Z,6
2024-03-22T14:56:50.523Z,3.4
2024-03-22T15:01:32.685Z,3.8
2024-03-22T15:06:15.015Z,4.19
2024-03-22T15:10:57.321Z,5.3
2024-03-22T15:15:38.594Z,4.69
2024-03-22T15:25:02.984Z,9.2
2024-03-22T15:29:45.297Z,5.9
2024-03-22T15:34:27.502Z,6.1
2024-03-22T15:39:09.814Z,4.69
2024-03-22T15:43:52.130Z,4.19
2024-03-22T15:48:34.345Z,4
2024-03-22T15:53:16.658Z,5
2024-03-22T15:57:58.963Z,8.1
2024-03-22T16:02:41.173Z,5.9
2024-03-22T16:12:05.796Z,5.4
2024-03-22T16:16:48.010Z,5.1
2024-03-22T16:21:29.385Z,4
2024-03-22T16:26:11.805Z,4.1
2024-03-22T16:30:53.135Z,6.1
2024-03-22T16:35:35.246Z,14
2024-03-22T16:40:17.630Z,8.1
2024-03-22T16:44:59.857Z,3.6
2024-03-22T16:49:42.124Z,5.4
2024-03-22T16:54:24.352Z,3.5
2024-03-22T16:59:06.561Z,3.4
2024-03-22T17:03:49.042Z,7.9
2024-03-22T17:08:30.181Z,3.6
2024-03-22T17:17:54.701Z,2.09
2024-03-22T17:22:36.006Z,3.8
2024-03-22T17:27:18.320Z,6.6
2024-03-22T17:32:00.646Z,4.5
2024-03-22T17:36:42.843Z,4.19
2024-03-22T17:46:07.469Z,12.8
2024-03-22T17:50:49.677Z,6.5
2024-03-22T17:55:31.985Z,5.7
2024-03-22T18:00:14.370Z,5.2
2024-03-22T18:04:55.594Z,4.1
2024-03-22T18:09:37.812Z,9.6
2024-03-22T18:14:20.129Z,8.2
2024-03-22T18:19:01.443Z,4
2024-03-22T18:23:43.749Z,3.3
2024-03-22T18:28:25.954Z,9.7
2024-03-22T18:33:08.274Z,7.3
2024-03-22T18:37:50.572Z,7.9
2024-03-22T18:42:32.786Z,8.3
2024-03-22T18:47:15.146Z,11.9
2024-03-22T18:51:56.406Z,7.1
2024-03-22T18:56:38.716Z,3.2
2024-03-22T19:01:20.935Z,6.4
2024-03-22T19:06:03.234Z,3.8
2024-03-22T19:10:45.649Z,4.4
2024-03-22T19:20:10.168Z,4.8
2024-03-22T19:24:52.495Z,5.9
2024-03-22T19:29:34.792Z,6.1
2024-03-22T19:34:17.009Z,6.7
2024-03-22T19:38:59.310Z,9.7
2024-03-22T19:43:41.627Z,8.8
2024-03-22T19:48:23.834Z,8.89
2024-03-22T19:53:06.153Z,8.1
2024-03-22T19:57:48.461Z,8.3
2024-03-22T20:02:30.676Z,8.5
2024-03-22T20:07:12.975Z,8.3
2024-03-22T20:11:54.291Z,9.8
2024-03-22T20:16:36.628Z,13.9
2024-03-22T20:21:18.800Z,9
2024-03-22T20:26:01.115Z,6.9
2024-03-22T20:30:43.435Z,10.7
2024-03-22T20:35:25.641Z,9.2
2024-03-22T20:40:06.946Z,17.7
2024-03-22T20:44:48.263Z,20.1
2024-03-22T20:49:30.578Z,10.7
2024-03-22T20:54:12.910Z,16.5
2024-03-22T20:58:55.103Z,11.1
2024-03-22T21:03:37.404Z,8.1
2024-03-22T21:08:19.721Z,8.89
2024-03-22T21:13:01.931Z,8.3
2024-03-22T21:17:44.242Z,10.4
2024-03-22T21:22:26.556Z,12.2
2024-03-22T21:27:08.764Z,11.6
2024-03-22T21:31:51.071Z,10.1
2024-03-22T21:41:15.588Z,14
2024-03-22T21:45:57.893Z,8.2
2024-03-22T21:50:39.216Z,14
2024-03-22T21:55:21.566Z,12.1
2024-03-22T22:00:03.734Z,8.6
2024-03-22T22:04:46.051Z,10.9
2024-03-22T22:09:28.358Z,14.6
2024-03-22T22:14:10.566Z,17.2
2024-03-22T22:18:52.869Z,8.3
2024-03-22T22:23:35.184Z,11
2024-03-22T22:28:17.399Z,10.5
2024-03-22T22:32:59.703Z,16
2024-03-22T22:37:42.017Z,15.5
2024-03-22T22:42:24.237Z,10.6
2024-03-22T22:47:06.538Z,14
2024-03-22T22:51:47.853Z,10.2
2024-03-22T22:56:30.159Z,8.6
2024-03-22T23:01:12.371Z,10.6
2024-03-22T23:05:54.694Z,9.8
2024-03-22T23:15:19.207Z,10.1
2024-03-22T23:20:01.519Z,11
2024-03-22T23:24:43.831Z,12.5
2024-03-22T23:29:26.153Z,8.5
2024-03-22T23:34:08.353Z,13.5
2024-03-22T23:38:50.646Z,12.8
2024-03-22T23:43:32.969Z,11
2024-03-22T23:48:15.307Z,11.6
2024-03-22T23:52:56.489Z,11.2
